sensor_id;sensor_type;location;lat;lon;timestamp;P1;durP1;ratioP1;P2;durP2;ratioP2
26319;SDS011;14024;52.226;5.200;2022-11-06T00:00:15;16.23;;;6.88;;
26319;SDS011;14024;52.226;5.200;2022-11-06T00:02:42;20.05;;;6.78;;
26319;SDS011;14024;52.226;5.200;2022-11-06T00:05:08;14.82;;;7.65;;
26319;SDS011;14024;52.226;5.200;2022-11-06T00:07:53;14.57;;;6.78;;
26319;SDS011;14024;52.226;5.200;2022-11-06T00:10:19;22.45;;;8.20;;
26319;SDS011;14024;52.226;5.200;2022-11-06T00:12:45;12.88;;;6.57;;
26319;SDS011;14024;52.226;5.200;2022-11-06T00:15:11;16.40;;;6.30;;
26319;SDS011;14024;52.226;5.200;2022-11-06T00:17:37;19.73;;;8.10;;
26319;SDS011;14024;52.226;5.200;2022-11-06T00:20:04;21.33;;;8.30;;
26319;SDS011;14024;52.226;5.200;2022-11-06T00:22:33;19.40;;;6.35;;
26319;SDS011;14024;52.226;5.200;2022-11-06T00:24:59;20.98;;;7.15;;
26319;SDS011;14024;52.226;5.200;2022-11-06T00:27:26;13.93;;;6.57;;
26319;SDS011;14024;52.226;5.200;2022-11-06T00:29:52;19.58;;;7.07;;
26319;SDS011;14024;52.226;5.200;2022-11-06T00:32:18;17.50;;;7.35;;
26319;SDS011;14024;52.226;5.200;2022-11-06T00:34:44;16.63;;;6.70;;
26319;SDS011;14024;52.226;5.200;2022-11-06T00:37:09;19.58;;;6.55;;
26319;SDS011;14024;52.226;5.200;2022-11-06T00:39:35;11.85;;;6.43;;
26319;SDS011;14024;52.226;5.200;2022-11-06T00:42:01;12.55;;;6.95;;
26319;SDS011;14024;52.226;5.200;2022-11-06T00:44:27;16.90;;;6.75;;
26319;SDS011;14024;52.226;5.200;2022-11-06T00:46:53;21.20;;;6.72;;
26319;SDS011;14024;52.226;5.200;2022-11-06T00:49:19;19.45;;;7.05;;
26319;SDS011;14024;52.226;5.200;2022-11-06T00:51:45;21.02;;;7.13;;
26319;SDS011;14024;52.226;5.200;2022-11-06T00:54:12;16.50;;;6.20;;
26319;SDS011;14024;52.226;5.200;2022-11-06T00:56:38;21.15;;;7.07;;
26319;SDS011;14024;52.226;5.200;2022-11-06T00:59:06;14.68;;;6.55;;
26319;SDS011;14024;52.226;5.200;2022-11-06T01:01:38;18.08;;;7.25;;
26319;SDS011;14024;52.226;5.200;2022-11-06T01:04:15;17.60;;;7.28;;
26319;SDS011;14024;52.226;5.200;2022-11-06T01:06:43;16.27;;;6.68;;
26319;SDS011;14024;52.226;5.200;2022-11-06T01:09:10;16.80;;;7.38;;
26319;SDS011;14024;52.226;5.200;2022-11-06T01:11:39;16.63;;;6.40;;
26319;SDS011;14024;52.226;5.200;2022-11-06T01:14:06;13.40;;;6.25;;
26319;SDS011;14024;52.226;5.200;2022-11-06T01:16:33;14.35;;;6.35;;
26319;SDS011;14024;52.226;5.200;2022-11-06T01:19:00;22.35;;;6.95;;
26319;SDS011;14024;52.226;5.200;2022-11-06T01:21:27;16.95;;;7.25;;
26319;SDS011;14024;52.226;5.200;2022-11-06T01:23:54;19.85;;;6.25;;
26319;SDS011;14024;52.226;5.200;2022-11-06T01:26:20;17.75;;;7.40;;
26319;SDS011;14024;52.226;5.200;2022-11-06T01:28:47;21.15;;;7.65;;
26319;SDS011;14024;52.226;5.200;2022-11-06T01:31:14;12.52;;;6.55;;
26319;SDS011;14024;52.226;5.200;2022-11-06T01:33:40;13.95;;;6.65;;
26319;SDS011;14024;52.226;5.200;2022-11-06T01:36:10;19.08;;;6.65;;
26319;SDS011;14024;52.226;5.200;2022-11-06T01:38:40;18.95;;;7.50;;
26319;SDS011;14024;52.226;5.200;2022-11-06T01:41:06;21.02;;;7.07;;
26319;SDS011;14024;52.226;5.200;2022-11-06T01:43:50;16.73;;;6.72;;
26319;SDS011;14024;52.226;5.200;2022-11-06T01:46:17;24.27;;;7.70;;
26319;SDS011;14024;52.226;5.200;2022-11-06T01:48:46;14.15;;;6.75;;
26319;SDS011;14024;52.226;5.200;2022-11-06T01:51:13;14.77;;;7.13;;
26319;SDS011;14024;52.226;5.200;2022-11-06T01:53:39;15.15;;;6.65;;
26319;SDS011;14024;52.226;5.200;2022-11-06T01:56:07;19.65;;;6.65;;
26319;SDS011;14024;52.226;5.200;2022-11-06T01:58:35;15.73;;;6.60;;
26319;SDS011;14024;52.226;5.200;2022-11-06T02:01:01;18.75;;;7.18;;
26319;SDS011;14024;52.226;5.200;2022-11-06T02:03:28;17.00;;;7.50;;
26319;SDS011;14024;52.226;5.200;2022-11-06T02:05:54;17.25;;;7.50;;
26319;SDS011;14024;52.226;5.200;2022-11-06T02:08:21;15.73;;;6.25;;
26319;SDS011;14024;52.226;5.200;2022-11-06T02:10:48;16.83;;;6.85;;
26319;SDS011;14024;52.226;5.200;2022-11-06T02:15:59;26.73;;;8.15;;
26319;SDS011;14024;52.226;5.200;2022-11-06T02:23:49;16.05;;;6.57;;
26319;SDS011;14024;52.226;5.200;2022-11-06T02:29:06;20.38;;;6.20;;
26319;SDS011;14024;52.226;5.200;2022-11-06T02:31:33;17.27;;;6.30;;
26319;SDS011;14024;52.226;5.200;2022-11-06T02:34:00;14.35;;;6.07;;
26319;SDS011;14024;52.226;5.200;2022-11-06T02:36:29;18.08;;;6.18;;
26319;SDS011;14024;52.226;5.200;2022-11-06T02:38:57;11.02;;;5.72;;
26319;SDS011;14024;52.226;5.200;2022-11-06T02:41:27;12.85;;;5.63;;
26319;SDS011;14024;52.226;5.200;2022-11-06T02:43:55;18.95;;;6.25;;
26319;SDS011;14024;52.226;5.200;2022-11-06T02:46:33;17.42;;;5.72;;
26319;SDS011;14024;52.226;5.200;2022-11-06T02:49:01;13.15;;;5.50;;
26319;SDS011;14024;52.226;5.200;2022-11-06T02:51:29;18.60;;;6.18;;
26319;SDS011;14024;52.226;5.200;2022-11-06T02:54:00;21.20;;;6.22;;
26319;SDS011;14024;52.226;5.200;2022-11-06T02:56:27;10.73;;;5.35;;
26319;SDS011;14024;52.226;5.200;2022-11-06T02:58:55;24.33;;;6.20;;
26319;SDS011;14024;52.226;5.200;2022-11-06T03:01:27;12.27;;;5.82;;
26319;SDS011;14024;52.226;5.200;2022-11-06T03:03:56;12.75;;;5.82;;
26319;SDS011;14024;52.226;5.200;2022-11-06T03:06:31;18.02;;;6.22;;
26319;SDS011;14024;52.226;5.200;2022-11-06T03:09:05;17.45;;;5.72;;
26319;SDS011;14024;52.226;5.200;2022-11-06T03:11:32;20.15;;;6.65;;
26319;SDS011;14024;52.226;5.200;2022-11-06T03:19:10;15.45;;;5.88;;
26319;SDS011;14024;52.226;5.200;2022-11-06T03:24:16;19.63;;;5.57;;
26319;SDS011;14024;52.226;5.200;2022-11-06T03:26:47;14.48;;;5.70;;
26319;SDS011;14024;52.226;5.200;2022-11-06T03:29:19;12.88;;;5.60;;
26319;SDS011;14024;52.226;5.200;2022-11-06T03:31:54;18.30;;;6.60;;
26319;SDS011;14024;52.226;5.200;2022-11-06T03:37:15;13.18;;;6.07;;
26319;SDS011;14024;52.226;5.200;2022-11-06T03:39:45;23.95;;;6.50;;
26319;SDS011;14024;52.226;5.200;2022-11-06T03:42:14;22.23;;;6.68;;
26319;SDS011;14024;52.226;5.200;2022-11-06T03:44:46;21.38;;;6.72;;
26319;SDS011;14024;52.226;5.200;2022-11-06T03:49:45;14.32;;;6.40;;
26319;SDS011;14024;52.226;5.200;2022-11-06T03:52:18;11.18;;;5.75;;
26319;SDS011;14024;52.226;5.200;2022-11-06T03:54:55;20.83;;;7.80;;
26319;SDS011;14024;52.226;5.200;2022-11-06T03:57:28;17.75;;;6.43;;
26319;SDS011;14024;52.226;5.200;2022-11-06T03:59:57;24.03;;;6.83;;
26319;SDS011;14024;52.226;5.200;2022-11-06T04:02:23;17.83;;;5.90;;
26319;SDS011;14024;52.226;5.200;2022-11-06T04:04:51;13.45;;;6.00;;
26319;SDS011;14024;52.226;5.200;2022-11-06T04:07:18;11.32;;;5.95;;
26319;SDS011;14024;52.226;5.200;2022-11-06T04:09:48;17.13;;;6.50;;
26319;SDS011;14024;52.226;5.200;2022-11-06T04:12:34;15.68;;;6.72;;
26319;SDS011;14024;52.226;5.200;2022-11-06T04:15:21;14.05;;;5.65;;
26319;SDS011;14024;52.226;5.200;2022-11-06T04:17:47;14.18;;;5.80;;
26319;SDS011;14024;52.226;5.200;2022-11-06T04:20:22;18.20;;;6.05;;
26319;SDS011;14024;52.226;5.200;2022-11-06T04:25:34;12.45;;;5.47;;
26319;SDS011;14024;52.226;5.200;2022-11-06T04:28:35;13.23;;;5.57;;
26319;SDS011;14024;52.226;5.200;2022-11-06T04:31:06;13.85;;;5.75;;
26319;SDS011;14024;52.226;5.200;2022-11-06T04:33:44;17.70;;;6.20;;
26319;SDS011;14024;52.226;5.200;2022-11-06T04:39:00;15.55;;;7.00;;
26319;SDS011;14024;52.226;5.200;2022-11-06T04:41:46;12.70;;;6.40;;
26319;SDS011;14024;52.226;5.200;2022-11-06T04:44:14;20.98;;;7.80;;
26319;SDS011;14024;52.226;5.200;2022-11-06T04:46:49;19.40;;;8.25;;
26319;SDS011;14024;52.226;5.200;2022-11-06T04:49:17;13.07;;;6.25;;
26319;SDS011;14024;52.226;5.200;2022-11-06T04:51:45;12.88;;;6.00;;
26319;SDS011;14024;52.226;5.200;2022-11-06T04:54:11;16.83;;;5.72;;
26319;SDS011;14024;52.226;5.200;2022-11-06T04:56:38;15.65;;;5.95;;
26319;SDS011;14024;52.226;5.200;2022-11-06T04:59:04;18.85;;;6.07;;
26319;SDS011;14024;52.226;5.200;2022-11-06T05:01:30;12.60;;;5.97;;
26319;SDS011;14024;52.226;5.200;2022-11-06T05:03:56;13.88;;;5.53;;
26319;SDS011;14024;52.226;5.200;2022-11-06T05:06:22;14.88;;;6.45;;
26319;SDS011;14024;52.226;5.200;2022-11-06T05:08:48;23.25;;;6.10;;
26319;SDS011;14024;52.226;5.200;2022-11-06T05:11:14;17.40;;;6.20;;
26319;SDS011;14024;52.226;5.200;2022-11-06T05:13:40;13.57;;;5.70;;
26319;SDS011;14024;52.226;5.200;2022-11-06T05:16:06;16.55;;;5.60;;
26319;SDS011;14024;52.226;5.200;2022-11-06T05:18:32;24.35;;;7.00;;
26319;SDS011;14024;52.226;5.200;2022-11-06T05:20:59;13.23;;;5.60;;
26319;SDS011;14024;52.226;5.200;2022-11-06T05:23:44;16.40;;;5.60;;
26319;SDS011;14024;52.226;5.200;2022-11-06T05:26:10;10.85;;;5.15;;
26319;SDS011;14024;52.226;5.200;2022-11-06T05:28:36;14.60;;;5.10;;
26319;SDS011;14024;52.226;5.200;2022-11-06T05:31:02;10.57;;;5.05;;
26319;SDS011;14024;52.226;5.200;2022-11-06T05:33:28;14.80;;;4.80;;
26319;SDS011;14024;52.226;5.200;2022-11-06T05:35:54;12.75;;;4.60;;
26319;SDS011;14024;52.226;5.200;2022-11-06T05:38:20;13.73;;;4.70;;
26319;SDS011;14024;52.226;5.200;2022-11-06T05:40:46;15.15;;;4.38;;
26319;SDS011;14024;52.226;5.200;2022-11-06T05:43:12;9.05;;;4.50;;
26319;SDS011;14024;52.226;5.200;2022-11-06T05:45:38;14.40;;;5.20;;
26319;SDS011;14024;52.226;5.200;2022-11-06T05:48:04;11.98;;;4.70;;
26319;SDS011;14024;52.226;5.200;2022-11-06T05:50:30;15.63;;;4.72;;
26319;SDS011;14024;52.226;5.200;2022-11-06T05:52:56;13.43;;;5.65;;
26319;SDS011;14024;52.226;5.200;2022-11-06T05:55:24;16.55;;;5.03;;
26319;SDS011;14024;52.226;5.200;2022-11-06T05:57:50;15.38;;;5.18;;
26319;SDS011;14024;52.226;5.200;2022-11-06T06:00:16;12.07;;;4.68;;
26319;SDS011;14024;52.226;5.200;2022-11-06T06:02:42;10.27;;;4.22;;
26319;SDS011;14024;52.226;5.200;2022-11-06T06:05:08;9.88;;;4.55;;
26319;SDS011;14024;52.226;5.200;2022-11-06T06:07:34;18.42;;;4.90;;
26319;SDS011;14024;52.226;5.200;2022-11-06T06:10:00;9.38;;;4.18;;
26319;SDS011;14024;52.226;5.200;2022-11-06T06:12:26;15.68;;;4.65;;
26319;SDS011;14024;52.226;5.200;2022-11-06T06:14:52;12.25;;;4.65;;
26319;SDS011;14024;52.226;5.200;2022-11-06T06:17:18;13.20;;;4.75;;
26319;SDS011;14024;52.226;5.200;2022-11-06T06:19:44;13.75;;;4.65;;
26319;SDS011;14024;52.226;5.200;2022-11-06T06:22:10;11.68;;;4.45;;
26319;SDS011;14024;52.226;5.200;2022-11-06T06:24:36;14.85;;;4.85;;
26319;SDS011;14024;52.226;5.200;2022-11-06T06:27:03;11.88;;;5.03;;
26319;SDS011;14024;52.226;5.200;2022-11-06T06:29:29;14.30;;;4.53;;
26319;SDS011;14024;52.226;5.200;2022-11-06T06:31:55;12.05;;;4.72;;
26319;SDS011;14024;52.226;5.200;2022-11-06T06:34:21;9.27;;;4.50;;
26319;SDS011;14024;52.226;5.200;2022-11-06T06:36:48;14.10;;;5.28;;
26319;SDS011;14024;52.226;5.200;2022-11-06T06:39:14;12.55;;;4.60;;
26319;SDS011;14024;52.226;5.200;2022-11-06T06:41:40;14.35;;;5.05;;
26319;SDS011;14024;52.226;5.200;2022-11-06T06:44:06;16.80;;;4.82;;
26319;SDS011;14024;52.226;5.200;2022-11-06T06:46:32;19.48;;;4.80;;
26319;SDS011;14024;52.226;5.200;2022-11-06T06:48:58;15.35;;;5.00;;
26319;SDS011;14024;52.226;5.200;2022-11-06T06:51:24;12.80;;;4.40;;
26319;SDS011;14024;52.226;5.200;2022-11-06T06:53:50;17.05;;;4.25;;
26319;SDS011;14024;52.226;5.200;2022-11-06T06:56:16;15.15;;;4.68;;
26319;SDS011;14024;52.226;5.200;2022-11-06T06:58:42;15.52;;;5.20;;
26319;SDS011;14024;52.226;5.200;2022-11-06T07:01:08;10.85;;;4.47;;
26319;SDS011;14024;52.226;5.200;2022-11-06T07:03:35;13.93;;;4.85;;
26319;SDS011;14024;52.226;5.200;2022-11-06T07:06:01;13.88;;;4.13;;
26319;SDS011;14024;52.226;5.200;2022-11-06T07:08:27;18.48;;;4.55;;
26319;SDS011;14024;52.226;5.200;2022-11-06T07:10:57;13.80;;;4.90;;
26319;SDS011;14024;52.226;5.200;2022-11-06T07:13:23;15.77;;;4.78;;
26319;SDS011;14024;52.226;5.200;2022-11-06T07:15:49;15.55;;;4.82;;
26319;SDS011;14024;52.226;5.200;2022-11-06T07:18:15;12.77;;;4.90;;
26319;SDS011;14024;52.226;5.200;2022-11-06T07:20:41;15.02;;;5.80;;
26319;SDS011;14024;52.226;5.200;2022-11-06T07:23:07;15.05;;;5.15;;
26319;SDS011;14024;52.226;5.200;2022-11-06T07:25:33;13.40;;;4.50;;
26319;SDS011;14024;52.226;5.200;2022-11-06T07:28:00;7.75;;;4.05;;
26319;SDS011;14024;52.226;5.200;2022-11-06T07:30:26;15.02;;;5.68;;
26319;SDS011;14024;52.226;5.200;2022-11-06T07:32:52;20.00;;;5.18;;
26319;SDS011;14024;52.226;5.200;2022-11-06T07:35:18;10.32;;;4.72;;
26319;SDS011;14024;52.226;5.200;2022-11-06T07:37:44;12.27;;;4.93;;
26319;SDS011;14024;52.226;5.200;2022-11-06T07:40:10;10.80;;;5.32;;
26319;SDS011;14024;52.226;5.200;2022-11-06T07:42:36;12.57;;;4.80;;
26319;SDS011;14024;52.226;5.200;2022-11-06T07:45:02;12.40;;;4.65;;
26319;SDS011;14024;52.226;5.200;2022-11-06T07:47:28;12.40;;;5.50;;
26319;SDS011;14024;52.226;5.200;2022-11-06T07:49:54;13.27;;;5.82;;
26319;SDS011;14024;52.226;5.200;2022-11-06T07:52:21;12.98;;;4.57;;
26319;SDS011;14024;52.226;5.200;2022-11-06T07:54:47;10.35;;;4.72;;
26319;SDS011;14024;52.226;5.200;2022-11-06T07:57:13;6.38;;;4.18;;
26319;SDS011;14024;52.226;5.200;2022-11-06T07:59:39;12.73;;;5.88;;
26319;SDS011;14024;52.226;5.200;2022-11-06T08:02:08;20.73;;;5.10;;
26319;SDS011;14024;52.226;5.200;2022-11-06T08:04:34;8.45;;;4.30;;
26319;SDS011;14024;52.226;5.200;2022-11-06T08:06:59;19.33;;;4.55;;
26319;SDS011;14024;52.226;5.200;2022-11-06T08:09:25;11.65;;;4.68;;
26319;SDS011;14024;52.226;5.200;2022-11-06T08:11:51;13.40;;;4.30;;
26319;SDS011;14024;52.226;5.200;2022-11-06T08:14:17;10.30;;;4.13;;
26319;SDS011;14024;52.226;5.200;2022-11-06T08:16:43;13.25;;;4.22;;
26319;SDS011;14024;52.226;5.200;2022-11-06T08:19:09;21.70;;;5.82;;
26319;SDS011;14024;52.226;5.200;2022-11-06T08:21:35;14.68;;;4.57;;
26319;SDS011;14024;52.226;5.200;2022-11-06T08:24:01;11.70;;;4.35;;
26319;SDS011;14024;52.226;5.200;2022-11-06T08:26:27;10.60;;;4.60;;
26319;SDS011;14024;52.226;5.200;2022-11-06T08:28:53;16.13;;;5.00;;
26319;SDS011;14024;52.226;5.200;2022-11-06T08:31:20;8.10;;;3.63;;
26319;SDS011;14024;52.226;5.200;2022-11-06T08:33:46;10.23;;;3.75;;
26319;SDS011;14024;52.226;5.200;2022-11-06T08:36:12;16.38;;;4.18;;
26319;SDS011;14024;52.226;5.200;2022-11-06T08:38:38;11.75;;;4.28;;
26319;SDS011;14024;52.226;5.200;2022-11-06T08:41:08;7.90;;;3.80;;
26319;SDS011;14024;52.226;5.200;2022-11-06T08:43:35;11.68;;;3.78;;
26319;SDS011;14024;52.226;5.200;2022-11-06T08:46:01;13.93;;;4.40;;
26319;SDS011;14024;52.226;5.200;2022-11-06T08:48:27;10.90;;;4.00;;
26319;SDS011;14024;52.226;5.200;2022-11-06T08:50:53;8.32;;;3.60;;
26319;SDS011;14024;52.226;5.200;2022-11-06T08:53:19;11.95;;;4.00;;
26319;SDS011;14024;52.226;5.200;2022-11-06T08:55:45;11.27;;;4.07;;
26319;SDS011;14024;52.226;5.200;2022-11-06T08:58:11;6.78;;;3.50;;
26319;SDS011;14024;52.226;5.200;2022-11-06T09:00:38;14.23;;;3.95;;
26319;SDS011;14024;52.226;5.200;2022-11-06T09:03:05;8.52;;;3.40;;
26319;SDS011;14024;52.226;5.200;2022-11-06T09:05:32;12.05;;;3.38;;
26319;SDS011;14024;52.226;5.200;2022-11-06T09:07:58;5.20;;;3.03;;
26319;SDS011;14024;52.226;5.200;2022-11-06T09:10:25;13.25;;;3.85;;
26319;SDS011;14024;52.226;5.200;2022-11-06T09:12:51;7.03;;;2.97;;
26319;SDS011;14024;52.226;5.200;2022-11-06T09:15:17;13.95;;;3.40;;
26319;SDS011;14024;52.226;5.200;2022-11-06T09:17:47;8.48;;;2.90;;
26319;SDS011;14024;52.226;5.200;2022-11-06T09:20:13;8.60;;;3.63;;
26319;SDS011;14024;52.226;5.200;2022-11-06T09:22:39;10.10;;;3.83;;
26319;SDS011;14024;52.226;5.200;2022-11-06T09:25:06;9.98;;;3.45;;
26319;SDS011;14024;52.226;5.200;2022-11-06T09:27:32;13.48;;;3.42;;
26319;SDS011;14024;52.226;5.200;2022-11-06T09:29:58;11.15;;;3.35;;
26319;SDS011;14024;52.226;5.200;2022-11-06T09:32:24;6.65;;;3.20;;
26319;SDS011;14024;52.226;5.200;2022-11-06T09:34:50;8.93;;;3.50;;
26319;SDS011;14024;52.226;5.200;2022-11-06T09:37:16;11.23;;;3.60;;
26319;SDS011;14024;52.226;5.200;2022-11-06T09:39:42;7.00;;;2.85;;
26319;SDS011;14024;52.226;5.200;2022-11-06T09:47:19;8.43;;;2.92;;
26319;SDS011;14024;52.226;5.200;2022-11-06T09:49:50;8.07;;;3.40;;
26319;SDS011;14024;52.226;5.200;2022-11-06T09:52:30;9.63;;;2.97;;
26319;SDS011;14024;52.226;5.200;2022-11-06T10:00:11;7.78;;;2.60;;
26319;SDS011;14024;52.226;5.200;2022-11-06T10:02:40;5.47;;;2.50;;
26319;SDS011;14024;52.226;5.200;2022-11-06T10:05:29;13.88;;;2.72;;
26319;SDS011;14024;52.226;5.200;2022-11-06T10:07:56;9.43;;;2.58;;
26319;SDS011;14024;52.226;5.200;2022-11-06T10:10:26;8.85;;;2.75;;
26319;SDS011;14024;52.226;5.200;2022-11-06T10:13:01;10.13;;;3.78;;
26319;SDS011;14024;52.226;5.200;2022-11-06T10:15:31;10.43;;;3.17;;
26319;SDS011;14024;52.226;5.200;2022-11-06T10:20:31;6.97;;;2.80;;
26319;SDS011;14024;52.226;5.200;2022-11-06T10:23:02;13.60;;;3.63;;
26319;SDS011;14024;52.226;5.200;2022-11-06T10:30:21;17.65;;;3.55;;
26319;SDS011;14024;52.226;5.200;2022-11-06T10:35:41;4.28;;;2.88;;
26319;SDS011;14024;52.226;5.200;2022-11-06T10:38:14;12.55;;;3.70;;
26319;SDS011;14024;52.226;5.200;2022-11-06T10:40:43;13.48;;;4.15;;
26319;SDS011;14024;52.226;5.200;2022-11-06T10:43:23;10.57;;;3.80;;
26319;SDS011;14024;52.226;5.200;2022-11-06T10:46:00;6.63;;;3.15;;
26319;SDS011;14024;52.226;5.200;2022-11-06T10:48:31;6.38;;;3.10;;
26319;SDS011;14024;52.226;5.200;2022-11-06T10:59:04;12.23;;;3.45;;
26319;SDS011;14024;52.226;5.200;2022-11-06T11:01:30;10.18;;;2.90;;
26319;SDS011;14024;52.226;5.200;2022-11-06T11:03:56;6.38;;;3.03;;
26319;SDS011;14024;52.226;5.200;2022-11-06T11:06:22;7.55;;;2.85;;
26319;SDS011;14024;52.226;5.200;2022-11-06T11:08:48;14.18;;;4.13;;
26319;SDS011;14024;52.226;5.200;2022-11-06T11:13:41;6.97;;;2.70;;
26319;SDS011;14024;52.226;5.200;2022-11-06T11:16:20;6.43;;;2.65;;
26319;SDS011;14024;52.226;5.200;2022-11-06T11:18:47;7.50;;;2.60;;
26319;SDS011;14024;52.226;5.200;2022-11-06T11:23:40;7.05;;;2.80;;
26319;SDS011;14024;52.226;5.200;2022-11-06T11:28:41;8.15;;;2.55;;
26319;SDS011;14024;52.226;5.200;2022-11-06T11:31:09;8.20;;;2.75;;
26319;SDS011;14024;52.226;5.200;2022-11-06T11:33:36;7.57;;;3.42;;
26319;SDS011;14024;52.226;5.200;2022-11-06T11:36:03;9.73;;;3.15;;
26319;SDS011;14024;52.226;5.200;2022-11-06T11:38:31;7.88;;;3.33;;
26319;SDS011;14024;52.226;5.200;2022-11-06T11:41:04;6.65;;;2.88;;
26319;SDS011;14024;52.226;5.200;2022-11-06T11:43:31;6.85;;;2.88;;
26319;SDS011;14024;52.226;5.200;2022-11-06T11:48:51;9.13;;;2.85;;
26319;SDS011;14024;52.226;5.200;2022-11-06T11:51:27;7.78;;;2.50;;
26319;SDS011;14024;52.226;5.200;2022-11-06T11:53:58;7.63;;;2.55;;
26319;SDS011;14024;52.226;5.200;2022-11-06T11:56:25;6.18;;;2.50;;
26319;SDS011;14024;52.226;5.200;2022-11-06T11:58:56;6.30;;;2.95;;
26319;SDS011;14024;52.226;5.200;2022-11-06T12:01:31;7.03;;;2.60;;
26319;SDS011;14024;52.226;5.200;2022-11-06T12:03:58;12.88;;;3.85;;
26319;SDS011;14024;52.226;5.200;2022-11-06T12:06:24;9.65;;;2.90;;
26319;SDS011;14024;52.226;5.200;2022-11-06T12:08:51;8.05;;;3.20;;
26319;SDS011;14024;52.226;5.200;2022-11-06T12:11:19;7.18;;;2.58;;
26319;SDS011;14024;52.226;5.200;2022-11-06T12:16:31;7.25;;;3.00;;
26319;SDS011;14024;52.226;5.200;2022-11-06T12:18:57;7.22;;;2.75;;
26319;SDS011;14024;52.226;5.200;2022-11-06T12:21:27;9.05;;;2.80;;
26319;SDS011;14024;52.226;5.200;2022-11-06T12:23:56;5.55;;;2.55;;
26319;SDS011;14024;52.226;5.200;2022-11-06T12:26:35;13.07;;;2.90;;
26319;SDS011;14024;52.226;5.200;2022-11-06T12:29:06;10.45;;;3.03;;
26319;SDS011;14024;52.226;5.200;2022-11-06T12:31:55;6.93;;;2.70;;
26319;SDS011;14024;52.226;5.200;2022-11-06T12:39:40;9.95;;;2.60;;
26319;SDS011;14024;52.226;5.200;2022-11-06T12:42:09;7.47;;;2.72;;
26319;SDS011;14024;52.226;5.200;2022-11-06T12:44:36;7.20;;;2.67;;
26319;SDS011;14024;52.226;5.200;2022-11-06T12:47:07;9.13;;;2.83;;
26319;SDS011;14024;52.226;5.200;2022-11-06T12:52:22;5.00;;;2.47;;
26319;SDS011;14024;52.226;5.200;2022-11-06T12:57:37;10.68;;;2.60;;
26319;SDS011;14024;52.226;5.200;2022-11-06T13:02:45;11.38;;;2.65;;
26319;SDS011;14024;52.226;5.200;2022-11-06T13:05:18;11.23;;;3.33;;
26319;SDS011;14024;52.226;5.200;2022-11-06T13:07:54;7.53;;;2.83;;
26319;SDS011;14024;52.226;5.200;2022-11-06T13:10:26;7.65;;;2.70;;
26319;SDS011;14024;52.226;5.200;2022-11-06T13:18:00;7.55;;;3.25;;
26319;SDS011;14024;52.226;5.200;2022-11-06T13:20:28;5.38;;;2.50;;
26319;SDS011;14024;52.226;5.200;2022-11-06T13:23:03;6.43;;;3.35;;
26319;SDS011;14024;52.226;5.200;2022-11-06T13:25:48;9.05;;;3.03;;
26319;SDS011;14024;52.226;5.200;2022-11-06T13:28:28;10.82;;;2.70;;
26319;SDS011;14024;52.226;5.200;2022-11-06T13:30:57;8.10;;;3.83;;
26319;SDS011;14024;52.226;5.200;2022-11-06T13:35:49;11.25;;;4.07;;
26319;SDS011;14024;52.226;5.200;2022-11-06T13:38:16;10.20;;;3.05;;
26319;SDS011;14024;52.226;5.200;2022-11-06T13:40:46;13.40;;;3.15;;
26319;SDS011;14024;52.226;5.200;2022-11-06T13:45:47;9.13;;;3.80;;
26319;SDS011;14024;52.226;5.200;2022-11-06T13:48:25;9.48;;;3.28;;
26319;SDS011;14024;52.226;5.200;2022-11-06T13:51:02;12.70;;;3.83;;
26319;SDS011;14024;52.226;5.200;2022-11-06T14:01:40;13.55;;;3.45;;
26319;SDS011;14024;52.226;5.200;2022-11-06T14:06:39;10.05;;;3.50;;
26319;SDS011;14024;52.226;5.200;2022-11-06T14:09:14;7.38;;;3.20;;
26319;SDS011;14024;52.226;5.200;2022-11-06T14:11:42;10.55;;;2.97;;
26319;SDS011;14024;52.226;5.200;2022-11-06T14:14:13;8.57;;;3.38;;
26319;SDS011;14024;52.226;5.200;2022-11-06T14:24:50;9.55;;;4.25;;
26319;SDS011;14024;52.226;5.200;2022-11-06T14:34:56;8.85;;;3.50;;
26319;SDS011;14024;52.226;5.200;2022-11-06T14:50:04;13.80;;;3.47;;
26319;SDS011;14024;52.226;5.200;2022-11-06T14:52:39;7.88;;;3.20;;
26319;SDS011;14024;52.226;5.200;2022-11-06T14:55:06;8.82;;;3.85;;
26319;SDS011;14024;52.226;5.200;2022-11-06T15:02:59;18.55;;;6.03;;
26319;SDS011;14024;52.226;5.200;2022-11-06T15:05:26;21.55;;;7.55;;
26319;SDS011;14024;52.226;5.200;2022-11-06T15:07:55;12.32;;;3.58;;
26319;SDS011;14024;52.226;5.200;2022-11-06T15:15:42;10.98;;;4.30;;
26319;SDS011;14024;52.226;5.200;2022-11-06T15:18:12;18.38;;;5.05;;
26319;SDS011;14024;52.226;5.200;2022-11-06T15:20:39;15.15;;;4.43;;
26319;SDS011;14024;52.226;5.200;2022-11-06T15:23:08;11.50;;;3.85;;
26319;SDS011;14024;52.226;5.200;2022-11-06T15:25:36;7.97;;;3.17;;
26319;SDS011;14024;52.226;5.200;2022-11-06T15:28:11;10.10;;;3.85;;
26319;SDS011;14024;52.226;5.200;2022-11-06T15:30:49;8.75;;;5.00;;
26319;SDS011;14024;52.226;5.200;2022-11-06T15:33:17;7.85;;;3.95;;
26319;SDS011;14024;52.226;5.200;2022-11-06T15:35:46;18.00;;;3.67;;
26319;SDS011;14024;52.226;5.200;2022-11-06T15:38:14;17.38;;;3.60;;
26319;SDS011;14024;52.226;5.200;2022-11-06T15:40:41;8.20;;;3.28;;
26319;SDS011;14024;52.226;5.200;2022-11-06T15:43:21;9.23;;;3.67;;
26319;SDS011;14024;52.226;5.200;2022-11-06T15:46:00;10.27;;;3.58;;
26319;SDS011;14024;52.226;5.200;2022-11-06T15:48:26;9.27;;;3.78;;
26319;SDS011;14024;52.226;5.200;2022-11-06T15:50:52;8.18;;;3.55;;
26319;SDS011;14024;52.226;5.200;2022-11-06T15:53:19;10.52;;;4.43;;
26319;SDS011;14024;52.226;5.200;2022-11-06T16:00:53;12.90;;;4.22;;
26319;SDS011;14024;52.226;5.200;2022-11-06T16:03:20;11.85;;;4.68;;
26319;SDS011;14024;52.226;5.200;2022-11-06T16:05:46;9.48;;;4.97;;
26319;SDS011;14024;52.226;5.200;2022-11-06T16:08:13;11.35;;;4.50;;
26319;SDS011;14024;52.226;5.200;2022-11-06T16:10:40;16.48;;;8.15;;
26319;SDS011;14024;52.226;5.200;2022-11-06T16:13:09;9.55;;;4.18;;
26319;SDS011;14024;52.226;5.200;2022-11-06T16:18:30;10.05;;;3.22;;
26319;SDS011;14024;52.226;5.200;2022-11-06T16:23:22;8.85;;;4.55;;
26319;SDS011;14024;52.226;5.200;2022-11-06T16:25:55;9.70;;;4.72;;
26319;SDS011;14024;52.226;5.200;2022-11-06T16:28:21;11.82;;;3.85;;
26319;SDS011;14024;52.226;5.200;2022-11-06T16:30:48;12.10;;;4.38;;
26319;SDS011;14024;52.226;5.200;2022-11-06T16:33:21;15.95;;;6.13;;
26319;SDS011;14024;52.226;5.200;2022-11-06T16:35:48;9.55;;;3.67;;
26319;SDS011;14024;52.226;5.200;2022-11-06T16:43:15;8.37;;;4.97;;
26319;SDS011;14024;52.226;5.200;2022-11-06T16:48:24;15.65;;;4.40;;
26319;SDS011;14024;52.226;5.200;2022-11-06T16:50:59;8.68;;;4.13;;
26319;SDS011;14024;52.226;5.200;2022-11-06T16:53:27;18.17;;;5.78;;
26319;SDS011;14024;52.226;5.200;2022-11-06T16:55:58;14.57;;;7.07;;
26319;SDS011;14024;52.226;5.200;2022-11-06T16:58:25;8.75;;;4.35;;
26319;SDS011;14024;52.226;5.200;2022-11-06T17:00:58;8.32;;;4.20;;
26319;SDS011;14024;52.226;5.200;2022-11-06T17:03:25;10.05;;;4.43;;
26319;SDS011;14024;52.226;5.200;2022-11-06T17:05:54;11.85;;;4.90;;
26319;SDS011;14024;52.226;5.200;2022-11-06T17:08:25;7.38;;;3.92;;
26319;SDS011;14024;52.226;5.200;2022-11-06T17:10:55;7.85;;;4.38;;
26319;SDS011;14024;52.226;5.200;2022-11-06T17:13:25;8.35;;;3.63;;
26319;SDS011;14024;52.226;5.200;2022-11-06T17:18:25;9.32;;;4.18;;
26319;SDS011;14024;52.226;5.200;2022-11-06T17:21:01;12.07;;;5.85;;
26319;SDS011;14024;52.226;5.200;2022-11-06T17:23:27;6.82;;;4.35;;
26319;SDS011;14024;52.226;5.200;2022-11-06T17:25:56;8.10;;;3.75;;
26319;SDS011;14024;52.226;5.200;2022-11-06T17:28:22;7.38;;;4.00;;
26319;SDS011;14024;52.226;5.200;2022-11-06T17:30:48;12.48;;;4.80;;